createdAt,value
2022-12-04T00:01:20.178Z,100.15
2022-12-04T00:03:48.753Z,90.80
2022-12-04T00:06:19.554Z,100.53
2022-12-04T00:08:49.284Z,95.38
2022-12-04T00:11:19.151Z,95.10
2022-12-04T00:13:47.875Z,110.55
2022-12-04T00:16:17.320Z,100.03
2022-12-04T00:18:46.001Z,99.95
2022-12-04T00:21:15.427Z,110.28
2022-12-04T00:23:45.480Z,109.90
2022-12-04T00:26:15.451Z,104.80
2022-12-04T00:28:44.037Z,100.50
2022-12-04T00:31:13.994Z,103.35
2022-12-04T00:33:42.646Z,103.18
2022-12-04T00:36:12.098Z,108.15
2022-12-04T00:38:40.826Z,108.50
2022-12-04T00:41:11.433Z,112.32
2022-12-04T00:43:40.066Z,107.88
2022-12-04T00:46:09.221Z,104.20
2022-12-04T00:48:37.928Z,104.60
2022-12-04T00:51:06.798Z,111.75
2022-12-04T00:53:35.358Z,100.95
2022-12-04T00:56:05.497Z,125.25
2022-12-04T00:58:35.513Z,108.13
2022-12-04T01:01:04.984Z,119.20
2022-12-04T01:03:33.953Z,110.93
2022-12-04T01:06:02.877Z,108.05
2022-12-04T01:08:31.641Z,114.63
2022-12-04T01:11:00.226Z,110.97
2022-12-04T01:13:28.770Z,101.95
2022-12-04T01:15:58.722Z,109.18
2022-12-04T01:18:27.343Z,113.25
2022-12-04T01:20:55.897Z,111.10
2022-12-04T01:23:24.447Z,119.07
2022-12-04T01:25:54.060Z,110.00
2022-12-04T01:28:22.602Z,125.38
2022-12-04T01:31:01.020Z,107.45
2022-12-04T01:33:29.643Z,115.43
2022-12-04T01:35:58.886Z,111.40
2022-12-04T01:38:27.582Z,113.65
2022-12-04T01:40:56.268Z,111.25
2022-12-04T01:43:25.054Z,126.18
2022-12-04T01:45:54.745Z,116.28
2022-12-04T01:48:30.835Z,109.45
2022-12-04T01:51:03.575Z,118.45
2022-12-04T01:53:32.180Z,119.85
2022-12-04T01:56:00.754Z,122.07
2022-12-04T01:58:32.102Z,125.40
2022-12-04T02:01:08.148Z,118.82
2022-12-04T02:03:39.108Z,120.03
2022-12-04T02:06:07.981Z,110.60
2022-12-04T02:08:36.514Z,119.90
2022-12-04T02:11:11.346Z,121.82
2022-12-04T02:13:43.446Z,121.13
2022-12-04T02:16:15.233Z,122.07
2022-12-04T02:18:50.210Z,124.70
2022-12-04T02:21:20.767Z,125.13
2022-12-04T02:24:08.209Z,118.35
2022-12-04T02:26:44.226Z,133.40
2022-12-04T02:29:17.239Z,118.38
2022-12-04T02:31:48.063Z,116.20
2022-12-04T02:34:19.662Z,128.90
2022-12-04T02:36:51.270Z,120.63
2022-12-04T02:39:23.611Z,109.00
2022-12-04T02:41:55.875Z,125.30
2022-12-04T02:44:26.742Z,111.03
2022-12-04T02:46:57.557Z,120.95
2022-12-04T02:49:28.482Z,121.85
2022-12-04T02:51:57.063Z,113.95
2022-12-04T02:54:27.545Z,121.90
2022-12-04T02:56:56.142Z,123.57
2022-12-04T02:59:27.873Z,126.25
2022-12-04T03:01:57.857Z,123.07
2022-12-04T03:04:26.968Z,122.65
2022-12-04T03:06:57.130Z,131.52
2022-12-04T03:09:26.345Z,128.65
2022-12-04T03:11:58.917Z,125.72
2022-12-04T03:14:30.331Z,117.28
2022-12-04T03:17:01.452Z,121.28
2022-12-04T03:19:31.148Z,124.40
2022-12-04T03:22:01.060Z,126.60
2022-12-04T03:24:30.528Z,135.45
2022-12-04T03:27:00.932Z,112.28
2022-12-04T03:29:32.932Z,112.65
2022-12-04T03:32:05.532Z,128.82
2022-12-04T03:34:36.327Z,124.05
2022-12-04T03:37:08.040Z,114.82
2022-12-04T03:39:38.350Z,123.57
2022-12-04T03:42:09.084Z,114.35
2022-12-04T03:44:41.035Z,115.97
2022-12-04T03:47:10.581Z,115.95
2022-12-04T03:49:41.711Z,113.88
2022-12-04T03:52:12.206Z,124.43
2022-12-04T03:54:44.105Z,112.57
2022-12-04T03:57:15.548Z,113.57
2022-12-04T03:59:49.918Z,122.95
2022-12-04T04:02:22.909Z,124.38
2022-12-04T04:04:52.564Z,114.05
2022-12-04T04:07:22.544Z,118.75
2022-12-04T04:09:51.517Z,104.30
2022-12-04T04:12:21.102Z,110.40
2022-12-04T04:15:10.905Z,113.80
2022-12-04T04:17:59.687Z,113.72
2022-12-04T04:20:48.814Z,114.90
2022-12-04T04:23:34.997Z,120.35
2022-12-04T04:26:03.589Z,112.25
2022-12-04T04:28:33.278Z,110.43
2022-12-04T04:31:08.504Z,108.88
2022-12-04T04:33:40.573Z,102.93
2022-12-04T04:36:12.107Z,105.72
2022-12-04T04:38:42.738Z,104.05
2022-12-04T04:41:12.733Z,118.15
2022-12-04T04:43:45.204Z,109.97
2022-12-04T04:46:15.917Z,108.55
2022-12-04T04:48:45.897Z,108.18
2022-12-04T04:51:14.506Z,102.95
2022-12-04T04:53:48.123Z,105.07
2022-12-04T04:56:16.644Z,115.43
2022-12-04T04:58:45.243Z,106.57
2022-12-04T05:01:17.253Z,108.60
2022-12-04T05:03:45.841Z,111.95
2022-12-04T05:06:14.488Z,109.13
2022-12-04T05:08:44.184Z,106.70
2022-12-04T05:11:13.742Z,107.75
2022-12-04T05:13:42.544Z,100.88
2022-12-04T05:16:14.320Z,108.53
2022-12-04T05:19:03.606Z,97.50
2022-12-04T05:21:31.410Z,106.95
2022-12-04T05:24:00.036Z,112.32
2022-12-04T05:26:28.568Z,108.45
2022-12-04T05:28:57.166Z,113.75
2022-12-04T05:31:27.233Z,115.95
2022-12-04T05:33:55.796Z,109.68
2022-12-04T05:36:24.353Z,115.85
2022-12-04T05:38:52.908Z,115.65
2022-12-04T05:41:21.490Z,106.78
2022-12-04T05:43:50.064Z,104.38
2022-12-04T05:46:18.737Z,104.65
2022-12-04T05:48:48.747Z,99.25
2022-12-04T05:51:17.307Z,106.68
2022-12-04T05:53:45.919Z,93.55
2022-12-04T05:56:14.506Z,109.85
2022-12-04T05:58:43.103Z,109.68
2022-12-04T06:01:12.324Z,97.93
2022-12-04T06:03:40.901Z,106.30
2022-12-04T06:06:20.791Z,106.70
2022-12-04T06:08:50.222Z,96.07
2022-12-04T06:11:20.038Z,109.35
2022-12-04T06:13:48.620Z,106.10
2022-12-04T06:16:17.981Z,101.93
2022-12-04T06:18:47.027Z,100.85
2022-12-04T06:21:16.924Z,100.55
2022-12-04T06:23:45.450Z,108.10
2022-12-04T06:26:14.046Z,101.10
2022-12-04T06:28:42.600Z,103.20
2022-12-04T06:31:12.109Z,100.10
2022-12-04T06:33:40.835Z,112.65
2022-12-04T06:36:11.104Z,106.15
2022-12-04T06:38:41.867Z,106.88
2022-12-04T06:41:11.884Z,97.15
2022-12-04T06:43:40.443Z,111.28
2022-12-04T06:46:10.096Z,107.72
2022-12-04T06:48:38.806Z,109.35
2022-12-04T06:51:08.333Z,104.80
2022-12-04T06:53:38.123Z,112.22
2022-12-04T06:56:09.689Z,102.43
2022-12-04T06:58:38.326Z,97.35
2022-12-04T07:01:11.083Z,95.88
2022-12-04T07:03:39.737Z,107.53
2022-12-04T07:06:15.467Z,111.90
2022-12-04T07:08:44.199Z,106.63
2022-12-04T07:11:14.695Z,106.55
2022-12-04T07:13:43.524Z,104.55
2022-12-04T07:16:13.908Z,103.93
2022-12-04T07:18:42.566Z,105.47
2022-12-04T07:21:12.376Z,101.35
2022-12-04T07:23:40.927Z,114.20
2022-12-04T07:26:10.530Z,95.65
2022-12-04T07:28:40.538Z,118.20
2022-12-04T07:31:09.678Z,102.28
2022-12-04T07:33:38.275Z,114.78
2022-12-04T07:36:08.142Z,113.90
2022-12-04T07:38:36.880Z,109.78
2022-12-04T07:41:06.446Z,113.25
2022-12-04T07:43:35.299Z,104.20
2022-12-04T07:46:10.170Z,111.07
2022-12-04T07:48:38.815Z,124.22
2022-12-04T07:51:08.102Z,107.68
2022-12-04T07:53:36.894Z,104.03
2022-12-04T07:56:06.193Z,104.22
2022-12-04T07:58:34.813Z,108.85
2022-12-04T08:01:12.539Z,105.80
2022-12-04T08:03:47.081Z,104.45
2022-12-04T08:06:16.853Z,113.97
2022-12-04T08:08:45.430Z,105.30
2022-12-04T08:11:15.280Z,113.75
2022-12-04T08:13:43.825Z,106.13
2022-12-04T08:16:14.072Z,112.78
2022-12-04T08:18:46.820Z,98.78
2022-12-04T08:21:16.504Z,98.05
2022-12-04T08:23:45.301Z,95.75
2022-12-04T08:26:14.020Z,108.03
2022-12-04T08:28:42.727Z,110.60
2022-12-04T08:31:14.403Z,110.60
2022-12-04T08:33:43.363Z,104.95
2022-12-04T08:36:13.496Z,114.35
2022-12-04T08:38:42.137Z,106.35
2022-12-04T08:41:12.603Z,108.10
2022-12-04T08:43:41.238Z,101.30
2022-12-04T08:46:11.091Z,110.05
2022-12-04T08:48:41.187Z,104.68
2022-12-04T08:51:12.463Z,114.03
2022-12-04T08:53:41.073Z,120.20
2022-12-04T08:56:09.837Z,108.90
2022-12-04T08:58:38.838Z,111.72
2022-12-04T09:01:08.020Z,105.50
2022-12-04T09:03:36.814Z,115.85
2022-12-04T09:06:07.054Z,115.68
2022-12-04T09:08:35.966Z,111.50
2022-12-04T09:11:05.619Z,97.22
2022-12-04T09:13:34.363Z,102.05
2022-12-04T09:16:05.137Z,108.53
2022-12-04T09:18:33.981Z,109.53
2022-12-04T09:21:06.029Z,96.35
2022-12-04T09:23:35.673Z,99.30
2022-12-04T09:26:04.802Z,104.97
2022-12-04T09:28:33.406Z,94.55
2022-12-04T09:31:02.838Z,92.88
2022-12-04T09:33:31.638Z,101.35
2022-12-04T09:36:00.606Z,100.10
2022-12-04T09:38:30.728Z,98.40
2022-12-04T09:41:02.077Z,95.80
2022-12-04T09:43:33.139Z,90.07
2022-12-04T09:46:04.209Z,108.60
2022-12-04T09:48:34.676Z,107.30
2022-12-04T09:51:03.613Z,106.47
2022-12-04T09:53:37.593Z,90.30
2022-12-04T09:56:07.000Z,100.97
2022-12-04T09:58:40.339Z,110.18
2022-12-04T10:01:11.208Z,102.35
2022-12-04T10:03:40.144Z,99.43
2022-12-04T10:06:12.179Z,98.20
2022-12-04T10:08:42.823Z,105.38
2022-12-04T10:11:15.992Z,100.15
2022-12-04T10:14:23.252Z,92.20
2022-12-04T10:17:12.977Z,96.57
2022-12-04T10:19:44.804Z,100.30
2022-12-04T10:22:14.951Z,87.68
2022-12-04T10:24:46.951Z,105.43
2022-12-04T10:27:20.706Z,97.18
2022-12-04T10:29:50.453Z,90.15
2022-12-04T10:32:20.999Z,92.47
2022-12-04T10:34:51.649Z,89.07
2022-12-04T10:37:20.184Z,95.05
2022-12-04T10:39:53.378Z,95.47
2022-12-04T10:42:27.166Z,93.53
2022-12-04T10:44:56.663Z,93.85
2022-12-04T10:47:25.439Z,89.95
2022-12-04T10:50:00.665Z,81.35
2022-12-04T10:52:29.281Z,94.47
2022-12-04T10:55:00.606Z,92.55
2022-12-04T10:57:39.220Z,93.97
2022-12-04T11:00:25.679Z,90.72
2022-12-04T11:02:54.855Z,81.43
2022-12-04T11:05:29.102Z,75.32
2022-12-04T11:07:57.928Z,87.65
2022-12-04T11:10:31.973Z,92.10
2022-12-04T11:13:01.887Z,84.55
2022-12-04T11:15:30.490Z,82.03
2022-12-04T11:18:09.262Z,74.53
2022-12-04T11:20:38.674Z,72.57
2022-12-04T11:23:08.504Z,75.82
2022-12-04T11:25:45.318Z,75.75
2022-12-04T11:28:39.841Z,82.15
2022-12-04T11:31:05.603Z,79.75
2022-12-04T11:33:35.829Z,84.63
2022-12-04T11:36:07.240Z,80.13
2022-12-04T11:38:36.286Z,79.55
2022-12-04T11:41:06.855Z,77.65
2022-12-04T11:43:38.020Z,75.75
2022-12-04T11:46:07.862Z,74.70
2022-12-04T11:48:43.842Z,76.50
2022-12-04T11:51:17.221Z,77.13
2022-12-04T11:53:48.963Z,87.70
2022-12-04T11:56:26.391Z,85.43
2022-12-04T11:59:24.881Z,73.57
2022-12-04T12:01:58.737Z,74.57
2022-12-04T12:05:04.540Z,74.47
2022-12-04T12:07:40.713Z,88.07
2022-12-04T12:10:13.043Z,69.22
2022-12-04T12:12:52.893Z,67.55
2022-12-04T12:15:27.083Z,77.57
2022-12-04T12:18:07.414Z,75.05
2022-12-04T12:20:38.289Z,67.10
2022-12-04T12:23:24.961Z,78.57
2022-12-04T12:25:58.018Z,75.47
2022-12-04T12:28:40.317Z,80.10
2022-12-04T12:31:30.771Z,78.00
2022-12-04T12:34:01.535Z,83.05
2022-12-04T12:36:32.358Z,68.63
2022-12-04T12:39:03.186Z,81.35
2022-12-04T12:41:33.294Z,74.68
2022-12-04T12:44:06.040Z,78.47
2022-12-04T12:46:37.560Z,80.72
2022-12-04T12:49:08.569Z,78.22
2022-12-04T12:51:38.825Z,75.72
2022-12-04T12:54:15.926Z,79.45
2022-12-04T12:56:49.937Z,83.10
2022-12-04T12:59:22.357Z,81.45
2022-12-04T13:01:59.880Z,90.78
2022-12-04T13:04:33.594Z,86.28
2022-12-04T13:07:10.737Z,98.30
2022-12-04T13:09:39.087Z,94.45
2022-12-04T13:12:11.121Z,90.25
2022-12-04T13:14:43.526Z,92.32
2022-12-04T13:17:17.719Z,90.70
2022-12-04T13:19:48.134Z,89.28
2022-12-04T13:22:19.669Z,91.93
2022-12-04T13:25:13.147Z,92.03
2022-12-04T13:27:48.230Z,96.82
2022-12-04T13:30:20.325Z,141.73
2022-12-04T13:33:16.594Z,102.28
2022-12-04T13:36:09.677Z,94.18
2022-12-04T13:38:44.161Z,93.38
2022-12-04T13:41:13.541Z,101.00
2022-12-04T13:43:47.161Z,96.47
2022-12-04T13:46:34.757Z,100.22
2022-12-04T13:49:11.081Z,102.78
2022-12-04T13:51:40.608Z,110.68
2022-12-04T13:54:31.248Z,115.53
2022-12-04T13:57:16.358Z,104.45
2022-12-04T13:59:45.221Z,106.15
2022-12-04T14:02:29.838Z,112.85
2022-12-04T14:05:00.546Z,105.13
2022-12-04T14:07:31.859Z,105.70
2022-12-04T14:10:01.924Z,112.68
2022-12-04T14:12:32.266Z,115.13
2022-12-04T14:15:01.690Z,110.82
2022-12-04T14:17:33.036Z,105.93
2022-12-04T14:20:07.496Z,128.35
2022-12-04T14:22:44.750Z,112.57
2022-12-04T14:25:35.762Z,119.68
2022-12-04T14:28:25.793Z,126.68
2022-12-04T14:31:36.353Z,120.90
2022-12-04T14:34:18.893Z,131.50
2022-12-04T14:36:47.480Z,126.30
2022-12-04T14:39:26.862Z,134.90
2022-12-04T14:42:06.087Z,121.15
2022-12-04T14:44:34.330Z,122.10
2022-12-04T14:47:10.764Z,128.10
2022-12-04T14:49:50.939Z,139.80
2022-12-04T14:52:25.256Z,130.15
2022-12-04T14:55:00.321Z,127.47
2022-12-04T14:57:44.045Z,122.30
2022-12-04T15:00:17.527Z,135.88
2022-12-04T15:02:46.272Z,141.00
2022-12-04T15:05:20.402Z,143.70
2022-12-04T15:07:52.135Z,139.70
2022-12-04T15:10:40.596Z,134.85
2022-12-04T15:13:09.094Z,131.00
2022-12-04T15:15:37.504Z,142.23
2022-12-04T15:18:13.183Z,148.77
2022-12-04T15:20:45.478Z,133.35
2022-12-04T15:23:15.678Z,143.80
2022-12-04T15:25:46.225Z,139.27
2022-12-04T15:28:17.853Z,133.45
2022-12-04T15:30:46.406Z,141.27
2022-12-04T15:33:21.860Z,141.25
2022-12-04T15:35:53.873Z,135.68
2022-12-04T15:38:22.126Z,143.77
2022-12-04T15:40:55.794Z,148.48
2022-12-04T15:43:30.486Z,144.73
2022-12-04T15:45:58.954Z,142.65
2022-12-04T15:48:29.491Z,143.68
2022-12-04T15:51:03.619Z,211.57
2022-12-04T15:53:33.512Z,148.82
2022-12-04T15:56:04.854Z,169.23
2022-12-04T15:58:34.154Z,157.82
2022-12-04T16:01:04.608Z,149.77
2022-12-04T16:03:36.015Z,157.93
2022-12-04T16:06:09.530Z,155.50
2022-12-04T16:08:39.687Z,152.38
2022-12-04T16:11:09.226Z,176.20
2022-12-04T16:13:39.245Z,149.75
2022-12-04T16:16:09.111Z,170.07
2022-12-04T16:18:38.326Z,166.27
2022-12-04T16:21:08.659Z,161.00
2022-12-04T16:23:36.909Z,167.10
2022-12-04T16:26:05.821Z,140.43
2022-12-04T16:28:34.055Z,153.38
2022-12-04T16:31:02.344Z,148.93
2022-12-04T16:33:30.648Z,182.77
2022-12-04T16:35:58.905Z,185.40
2022-12-04T16:38:28.509Z,163.13
2022-12-04T16:40:56.952Z,170.38
2022-12-04T16:43:25.282Z,170.18
2022-12-04T16:45:55.266Z,170.68
2022-12-04T16:48:23.492Z,161.45
2022-12-04T16:50:51.780Z,161.95
2022-12-04T16:53:21.242Z,164.60
2022-12-04T16:55:52.006Z,154.45
2022-12-04T16:58:21.140Z,165.13
2022-12-04T17:00:53.062Z,149.40
2022-12-04T17:03:25.802Z,166.13
2022-12-04T17:05:54.104Z,168.75
2022-12-04T17:08:22.466Z,146.27
2022-12-04T17:10:52.418Z,140.98
2022-12-04T17:13:20.929Z,154.48
2022-12-04T17:15:49.555Z,184.48
2022-12-04T17:18:21.578Z,152.38
2022-12-04T17:20:50.411Z,140.75
2022-12-04T17:23:18.822Z,152.55
2022-12-04T17:25:47.087Z,155.80
2022-12-04T17:28:16.768Z,159.93
2022-12-04T17:30:47.027Z,156.02
2022-12-04T17:33:15.417Z,177.80
2022-12-04T17:35:44.565Z,160.35
2022-12-04T17:38:13.195Z,150.38
2022-12-04T17:40:41.461Z,149.60
2022-12-04T17:43:09.738Z,141.65
2022-12-04T17:45:42.289Z,146.07
2022-12-04T17:48:10.569Z,142.88
2022-12-04T17:50:38.827Z,148.60
2022-12-04T17:53:07.110Z,160.43
2022-12-04T17:55:35.684Z,143.10
2022-12-04T17:58:03.931Z,134.68
2022-12-04T18:00:32.243Z,138.45
2022-12-04T18:03:01.997Z,149.40
2022-12-04T18:05:30.506Z,156.27
2022-12-04T18:07:58.822Z,171.73
2022-12-04T18:10:27.114Z,162.48
2022-12-04T18:12:55.384Z,145.27
2022-12-04T18:15:23.734Z,127.70
2022-12-04T18:17:51.990Z,142.70
2022-12-04T18:20:21.605Z,132.80
2022-12-04T18:22:49.879Z,136.25
2022-12-04T18:25:18.344Z,129.43
2022-12-04T18:27:46.592Z,133.98
2022-12-04T18:30:15.515Z,131.05
2022-12-04T18:32:45.067Z,123.93
2022-12-04T18:35:13.661Z,121.55
2022-12-04T18:37:43.285Z,125.22
2022-12-04T18:40:13.010Z,122.82
2022-12-04T18:42:41.293Z,122.40
2022-12-04T18:45:11.375Z,133.65
2022-12-04T18:47:39.660Z,109.80
2022-12-04T18:50:09.308Z,125.75
2022-12-04T18:52:38.939Z,112.60
2022-12-04T18:55:09.617Z,119.93
2022-12-04T18:57:37.882Z,122.07
2022-12-04T19:00:09.815Z,129.13
2022-12-04T19:02:38.129Z,117.32
2022-12-04T19:05:07.154Z,117.03
2022-12-04T19:07:35.485Z,116.63
2022-12-04T19:10:11.571Z,132.32
2022-12-04T19:12:41.381Z,132.98
2022-12-04T19:15:10.556Z,115.75
2022-12-04T19:17:38.793Z,128.15
2022-12-04T19:20:08.998Z,120.35
2022-12-04T19:22:37.370Z,111.43
2022-12-04T19:25:06.722Z,123.28
2022-12-04T19:27:35.347Z,143.15
2022-12-04T19:30:06.673Z,157.38
2022-12-04T19:32:35.117Z,118.10
2022-12-04T19:35:03.419Z,133.20
2022-12-04T19:37:31.727Z,121.88
2022-12-04T19:40:00.039Z,119.97
2022-12-04T19:42:30.936Z,119.57
2022-12-04T19:44:59.960Z,109.63
2022-12-04T19:47:29.614Z,130.95
2022-12-04T19:49:58.244Z,106.13
2022-12-04T19:52:26.709Z,113.85
2022-12-04T19:54:54.986Z,116.97
2022-12-04T19:57:23.281Z,125.93
2022-12-04T19:59:51.613Z,120.93
2022-12-04T20:02:20.434Z,113.88
2022-12-04T20:04:50.239Z,135.68
2022-12-04T20:07:18.900Z,121.50
2022-12-04T20:09:52.118Z,116.75
2022-12-04T20:12:24.502Z,121.45
2022-12-04T20:14:52.799Z,116.93
2022-12-04T20:17:21.031Z,128.38
2022-12-04T20:19:50.716Z,120.65
2022-12-04T20:22:18.972Z,129.90
2022-12-04T20:24:47.347Z,133.40
2022-12-04T20:27:15.635Z,135.57
2022-12-04T20:29:44.065Z,115.32
2022-12-04T20:32:12.346Z,113.80
2022-12-04T20:34:43.701Z,123.27
2022-12-04T20:37:13.886Z,134.30
2022-12-04T20:39:42.335Z,133.45
2022-12-04T20:42:10.743Z,122.15
2022-12-04T20:44:39.062Z,130.77
2022-12-04T20:47:07.350Z,117.20
2022-12-04T20:49:35.593Z,129.20
2022-12-04T20:52:04.089Z,129.80
2022-12-04T20:54:40.839Z,123.10
2022-12-04T20:57:10.105Z,115.63
2022-12-04T20:59:38.641Z,126.18
2022-12-04T21:02:07.007Z,119.00
2022-12-04T21:04:38.382Z,114.80
2022-12-04T21:07:06.775Z,113.90
2022-12-04T21:09:36.539Z,133.20
2022-12-04T21:12:25.170Z,126.57
2022-12-04T21:15:11.139Z,127.45
2022-12-04T21:17:40.359Z,133.10
2022-12-04T21:20:10.362Z,137.38
2022-12-04T21:22:38.923Z,128.27
2022-12-04T21:25:10.248Z,115.70
2022-12-04T21:27:38.527Z,128.83
2022-12-04T21:30:08.832Z,119.50
2022-12-04T21:32:37.197Z,118.30
2022-12-04T21:35:06.146Z,128.87
2022-12-04T21:37:35.038Z,117.50
2022-12-04T21:40:03.815Z,112.55
2022-12-04T21:42:34.580Z,123.90
2022-12-04T21:45:04.170Z,120.18
2022-12-04T21:47:32.753Z,125.47
2022-12-04T21:50:01.299Z,124.33
2022-12-04T21:52:29.810Z,130.63
2022-12-04T21:54:58.755Z,115.50
2022-12-04T21:57:28.568Z,120.87
2022-12-04T21:59:58.625Z,122.27
2022-12-04T22:02:27.269Z,120.73
2022-12-04T22:04:56.086Z,128.07
2022-12-04T22:07:24.367Z,125.10
2022-12-04T22:09:53.036Z,122.20
2022-12-04T22:15:12.299Z,165.02
2022-12-04T22:17:41.375Z,143.38
2022-12-04T22:20:10.780Z,140.98
2022-12-04T22:22:39.087Z,132.95
2022-12-04T22:25:08.198Z,141.03
2022-12-04T22:27:36.540Z,137.30
2022-12-04T22:30:06.795Z,136.20
2022-12-04T22:32:36.602Z,127.95
2022-12-04T22:35:05.185Z,144.77
2022-12-04T22:37:33.541Z,126.35
2022-12-04T22:40:02.033Z,124.65
2022-12-04T22:42:30.379Z,136.68
2022-12-04T22:44:58.728Z,129.05
2022-12-04T22:47:27.036Z,130.50
2022-12-04T22:49:56.934Z,120.95
2022-12-04T22:52:25.666Z,134.63
2022-12-04T22:54:54.021Z,138.63
2022-12-04T22:57:22.245Z,139.38
2022-12-04T22:59:50.535Z,139.95
2022-12-04T23:02:18.823Z,136.20
2022-12-04T23:04:47.114Z,137.57
2022-12-04T23:07:16.894Z,135.20
2022-12-04T23:09:45.431Z,132.45
2022-12-04T23:12:15.025Z,137.23
2022-12-04T23:14:43.296Z,140.23
2022-12-04T23:17:11.618Z,134.43
2022-12-04T23:19:40.123Z,128.63
2022-12-04T23:22:08.387Z,143.50
2022-12-04T23:24:38.920Z,129.37
2022-12-04T23:27:07.191Z,126.07
2022-12-04T23:32:23.799Z,127.13
2022-12-04T23:34:53.064Z,141.70
2022-12-04T23:37:21.313Z,128.43
2022-12-04T23:39:51.083Z,157.95
2022-12-04T23:42:19.364Z,129.73
2022-12-04T23:44:47.568Z,135.35
2022-12-04T23:47:15.892Z,128.50
2022-12-04T23:49:44.220Z,137.67
2022-12-04T23:52:12.521Z,118.70
2022-12-04T23:54:40.787Z,132.07
2022-12-04T23:57:10.520Z,130.13
2022-12-04T23:59:39.093Z,133.23
